Time;durP1;ratioP1;P1;durP2;ratioP2;P2;SDS_P1;SDS_P2;PMS_P1;PMS_P2;Temp;Humidity;BMP_temperature;BMP_pressure;BME280_temperature;BME280_humidity;BME280_pressure;Samples;Min_cycle;Max_cycle;Signal;HPM_P1;HPM_P2
2022/01/06 00:00:01;;;;;;;6.45;2.60;;;5.10;83.30;;;;;;5028388;28;20041;-73
2022/01/06 00:02:40;;;;;;;5.63;1.58;;;5.20;83.40;;;;;;5026364;28;20047;-71
2022/01/06 00:05:08;;;;;;;6.45;1.60;;;5.20;83.30;;;;;;5028421;28;20079;-72
2022/01/06 00:08:02;;;;;;;4.50;1.53;;;5.20;83.40;;;;;;2258343;28;10150063;-71
2022/01/06 00:10:32;;;;;;;4.60;1.88;;;5.10;83.40;;;;;;3625725;28;10001256;-71
2022/01/06 00:13:15;;;;;;;5.30;2.03;;;5.20;83.50;;;;;;5006479;28;20062;-71
2022/01/06 00:16:09;;;;;;;5.50;2.03;;;5.20;83.40;;;;;;5007665;28;20484;-71
2022/01/06 00:24:12;;;;;;;7.03;2.10;;;5.20;83.50;;;;;;5007697;28;20057;-70
2022/01/06 00:26:39;;;;;;;9.48;2.45;;;5.20;83.50;;;;;;5006105;28;20049;-72
2022/01/06 00:29:06;;;;;;;6.15;1.98;;;5.20;83.60;;;;;;5006896;28;20068;-73
2022/01/06 00:31:34;;;;;;;5.18;1.70;;;5.20;83.70;;;;;;5006829;28;20049;-72
2022/01/06 00:34:03;;;;;;;6.10;2.33;;;5.20;83.60;;;;;;5007104;28;20046;-73
2022/01/06 00:36:30;;;;;;;4.47;1.90;;;5.20;83.60;;;;;;5003251;28;20458;-72
2022/01/06 00:38:58;;;;;;;3.03;1.42;;;5.20;83.60;;;;;;5005732;28;20049;-71
2022/01/06 00:41:26;;;;;;;3.38;1.42;;;5.20;83.50;;;;;;5007185;28;20073;-72
2022/01/06 00:43:53;;;;;;;3.13;1.00;;;5.20;83.50;;;;;;5005893;28;20060;-72
2022/01/06 00:46:20;;;;;;;5.07;1.30;;;5.20;83.60;;;;;;5008594;28;20530;-71
2022/01/06 00:48:47;;;;;;;1.45;0.88;;;5.20;83.40;;;;;;5011092;28;20049;-71
2022/01/06 00:51:13;;;;;;;3.72;1.63;;;5.30;83.30;;;;;;5011333;28;20046;-74
2022/01/06 00:53:40;;;;;;;2.88;1.13;;;5.20;83.40;;;;;;5011399;28;20144;-72
2022/01/06 00:56:07;;;;;;;3.95;1.25;;;5.30;83.40;;;;;;5011437;28;20236;-72
2022/01/06 00:58:36;;;;;;;5.60;1.15;;;5.20;83.40;;;;;;5011815;28;20052;-72
2022/01/06 01:01:03;;;;;;;5.32;1.65;;;5.20;83.50;;;;;;5008422;28;20037;-70
2022/01/06 01:03:31;;;;;;;3.42;1.60;;;5.30;83.40;;;;;;5011770;28;20514;-73
2022/01/06 01:05:58;;;;;;;2.83;1.25;;;5.30;83.40;;;;;;5010996;28;20397;-69
2022/01/06 01:08:26;;;;;;;3.92;1.45;;;5.30;83.50;;;;;;5012178;28;20041;-70
2022/01/06 01:10:55;;;;;;;3.55;1.70;;;5.30;83.50;;;;;;5011316;28;20415;-72
2022/01/06 01:13:28;;;;;;;3.55;1.13;;;5.30;83.50;;;;;;5010824;28;20430;-71
2022/01/06 01:16:06;;;;;;;2.90;1.40;;;5.30;83.60;;;;;;4993855;28;20257;-71
2022/01/06 01:18:34;;;;;;;2.63;0.90;;;5.30;83.80;;;;;;5011272;28;20128;-72
2022/01/06 01:21:01;;;;;;;1.90;1.05;;;5.30;83.80;;;;;;4994164;28;20377;-71
2022/01/06 01:23:31;;;;;;;4.45;1.42;;;5.30;83.80;;;;;;5011373;28;20034;-71
2022/01/06 01:25:58;;;;;;;7.05;1.08;;;5.30;83.90;;;;;;5011359;28;20479;-71
2022/01/06 01:28:32;;;;;;;2.17;1.13;;;5.30;83.90;;;;;;5010965;28;20037;-71
2022/01/06 01:31:18;;;;;;;3.15;1.23;;;5.30;84.00;;;;;;5009717;28;20403;-71
2022/01/06 01:33:47;;;;;;;1.92;0.90;;;5.30;84.00;;;;;;5011016;28;20053;-71
2022/01/06 01:36:14;;;;;;;3.58;1.83;;;5.30;83.90;;;;;;5010479;28;20050;-71
2022/01/06 01:38:42;;;;;;;2.20;0.93;;;5.30;83.90;;;;;;5010253;28;20049;-71
2022/01/06 01:41:10;;;;;;;5.90;1.63;;;5.30;83.80;;;;;;5011092;28;20125;-71
2022/01/06 01:43:38;;;;;;;2.53;1.05;;;5.30;83.90;;;;;;5010501;28;20046;-72
2022/01/06 01:46:11;;;;;;;2.55;1.30;;;5.30;83.70;;;;;;5010730;28;20042;-72
2022/01/06 01:48:41;;;;;;;4.88;1.40;;;5.40;83.80;;;;;;5010148;28;20096;-73
2022/01/06 01:51:09;;;;;;;6.13;1.73;;;5.40;83.80;;;;;;5009785;28;20092;-72
2022/01/06 01:53:36;;;;;;;2.97;1.42;;;5.30;83.90;;;;;;5009393;28;20415;-71
2022/01/06 01:56:06;;;;;;;2.50;1.13;;;5.30;83.90;;;;;;5009056;28;20034;-71
2022/01/06 01:58:34;;;;;;;3.33;1.40;;;5.30;84.00;;;;;;5008010;28;20045;-71
2022/01/06 02:01:01;;;;;;;3.92;1.15;;;5.40;84.00;;;;;;5006282;28;20038;-71
2022/01/06 02:03:32;;;;;;;2.20;1.13;;;5.40;83.90;;;;;;5008260;28;20049;-70
2022/01/06 02:05:59;;;;;;;1.83;1.10;;;5.40;83.50;;;;;;5008731;28;20045;-71
2022/01/06 02:08:26;;;;;;;2.80;1.10;;;5.30;83.30;;;;;;5008803;28;20050;-73
2022/01/06 02:10:53;;;;;;;2.83;0.82;;;5.30;83.50;;;;;;4990673;28;20046;-71
2022/01/06 02:13:23;;;;;;;2.88;1.05;;;5.30;83.50;;;;;;5008801;28;20044;-71
2022/01/06 02:15:50;;;;;;;2.53;0.90;;;5.20;83.50;;;;;;5009200;28;20054;-72
2022/01/06 02:18:17;;;;;;;1.60;0.93;;;5.20;83.60;;;;;;5009453;28;20088;-71
2022/01/06 02:20:45;;;;;;;5.50;1.55;;;5.10;83.70;;;;;;5007122;28;20145;-71
2022/01/06 02:23:12;;;;;;;2.60;0.82;;;5.20;83.80;;;;;;5009255;28;20508;-72
2022/01/06 02:25:39;;;;;;;3.90;0.80;;;5.20;83.70;;;;;;5008533;28;20132;-71
2022/01/06 02:28:07;;;;;;;2.70;0.80;;;5.20;83.60;;;;;;5008619;28;20049;-71
2022/01/06 02:30:35;;;;;;;2.70;0.88;;;5.20;83.50;;;;;;5009660;28;20046;-71
2022/01/06 02:33:03;;;;;;;3.10;0.98;;;5.20;83.50;;;;;;5010189;28;20054;-72
2022/01/06 02:35:32;;;;;;;3.03;1.25;;;5.20;83.50;;;;;;5010266;28;20049;-72
2022/01/06 02:38:00;;;;;;;4.65;1.70;;;5.20;83.60;;;;;;5009752;28;20053;-71
2022/01/06 02:40:29;;;;;;;2.97;1.00;;;5.20;83.70;;;;;;5009377;28;20054;-72
2022/01/06 02:42:58;;;;;;;3.42;1.35;;;5.10;83.80;;;;;;5010812;28;20045;-73
2022/01/06 02:45:27;;;;;;;3.80;1.63;;;5.20;83.80;;;;;;5010109;28;20128;-72
2022/01/06 02:47:55;;;;;;;3.80;1.08;;;5.20;83.70;;;;;;5010275;28;20052;-71
2022/01/06 02:50:23;;;;;;;1.73;1.02;;;5.10;83.70;;;;;;5009840;28;20046;-71
2022/01/06 02:52:50;;;;;;;3.45;0.90;;;5.10;83.70;;;;;;4990954;28;20046;-71
2022/01/06 02:55:18;;;;;;;3.22;0.98;;;5.10;83.70;;;;;;5009977;28;20038;-70
2022/01/06 02:57:46;;;;;;;1.58;0.60;;;5.10;83.70;;;;;;5009250;28;20056;-72
2022/01/06 03:00:15;;;;;;;1.13;0.60;;;5.10;83.60;;;;;;5007267;28;20049;-72
2022/01/06 03:02:43;;;;;;;4.40;0.97;;;5.10;83.60;;;;;;5009527;28;20053;-72
2022/01/06 03:05:10;;;;;;;1.80;0.65;;;5.10;83.60;;;;;;5009772;28;20041;-71
2022/01/06 03:07:37;;;;;;;2.83;1.00;;;5.10;83.50;;;;;;5008859;28;20048;-70
2022/01/06 03:10:07;;;;;;;4.60;1.48;;;5.10;83.50;;;;;;5009153;28;20073;-72
2022/01/06 03:12:39;;;;;;;4.80;2.15;;;5.10;83.50;;;;;;4974374;28;20457;-72
2022/01/06 03:15:08;;;;;;;3.53;0.95;;;5.10;83.50;;;;;;4970988;28;20046;-70
2022/01/06 03:17:36;;;;;;;2.80;1.00;;;5.10;83.60;;;;;;4977675;28;20042;-71
2022/01/06 03:20:04;;;;;;;2.15;0.80;;;5.10;83.50;;;;;;4971104;28;20039;-72
2022/01/06 03:22:31;;;;;;;2.17;0.85;;;5.20;83.40;;;;;;4969994;28;20046;-71
2022/01/06 03:24:59;;;;;;;3.08;1.17;;;5.20;83.30;;;;;;4970708;28;20051;-72
2022/01/06 03:27:26;;;;;;;4.63;0.80;;;5.10;83.40;;;;;;4969723;28;20050;-71
2022/01/06 03:29:54;;;;;;;2.60;0.95;;;5.10;83.50;;;;;;4984100;28;20464;-72
2022/01/06 03:32:21;;;;;;;2.05;0.82;;;5.10;83.50;;;;;;4968168;28;20050;-72
2022/01/06 03:34:49;;;;;;;3.38;1.00;;;5.10;83.50;;;;;;4968679;28;20050;-71
2022/01/06 03:37:17;;;;;;;4.00;1.13;;;5.10;83.50;;;;;;4968309;28;20043;-72
2022/01/06 03:39:45;;;;;;;4.53;0.57;;;5.10;83.40;;;;;;4968387;28;20043;-71
2022/01/06 03:42:13;;;;;;;2.50;1.15;;;5.10;83.40;;;;;;4963648;28;20057;-72
2022/01/06 03:44:40;;;;;;;5.18;1.80;;;5.10;83.40;;;;;;4968321;28;20160;-72
2022/01/06 03:47:09;;;;;;;6.50;0.95;;;5.10;83.40;;;;;;4968079;28;20057;-73
2022/01/06 03:49:36;;;;;;;3.75;1.08;;;5.10;83.30;;;;;;4967207;28;20063;-71
2022/01/06 03:52:03;;;;;;;3.03;1.30;;;5.10;83.30;;;;;;4968339;28;20039;-71
2022/01/06 03:54:30;;;;;;;3.45;1.20;;;5.10;83.20;;;;;;4967530;28;20038;-70
2022/01/06 03:56:59;;;;;;;2.80;0.90;;;5.20;83.20;;;;;;4967630;28;20401;-71
2022/01/06 03:59:26;;;;;;;5.95;1.15;;;5.20;83.10;;;;;;4967558;28;20508;-71
2022/01/06 04:01:53;;;;;;;3.17;1.17;;;5.10;83.00;;;;;;4965231;28;20047;-74
2022/01/06 04:04:21;;;;;;;2.38;0.95;;;5.20;83.10;;;;;;4966459;28;20416;-71
2022/01/06 04:06:48;;;;;;;2.28;0.82;;;5.20;83.10;;;;;;4967506;28;20051;-73
2022/01/06 04:09:15;;;;;;;8.30;1.30;;;5.10;83.10;;;;;;4970448;28;20042;-71
2022/01/06 04:11:42;;;;;;;3.50;0.82;;;5.10;83.10;;;;;;4982145;28;20058;-72
2022/01/06 04:14:09;;;;;;;2.40;1.17;;;5.10;83.10;;;;;;5008768;28;20403;-70
2022/01/06 04:16:38;;;;;;;4.82;1.25;;;5.10;83.20;;;;;;5009453;28;20040;-70
2022/01/06 04:19:05;;;;;;;2.05;0.82;;;5.10;83.20;;;;;;4992413;28;20065;-70
2022/01/06 04:21:34;;;;;;;5.40;1.20;;;5.10;83.20;;;;;;5011994;28;20045;-70
2022/01/06 04:24:01;;;;;;;2.67;1.02;;;5.10;83.10;;;;;;5012951;28;20137;-72
2022/01/06 04:26:30;;;;;;;2.45;0.70;;;5.10;83.10;;;;;;5012691;28;20046;-72
2022/01/06 04:28:57;;;;;;;2.45;1.08;;;5.10;83.20;;;;;;5013067;28;20049;-71
2022/01/06 04:31:24;;;;;;;4.57;1.02;;;5.10;83.20;;;;;;5012223;28;20037;-73
2022/01/06 04:33:51;;;;;;;2.63;0.70;;;5.00;83.30;;;;;;5012264;28;20044;-71
2022/01/06 04:36:20;;;;;;;4.95;1.30;;;5.10;83.30;;;;;;5012957;28;20050;-70
2022/01/06 04:38:48;;;;;;;6.28;1.38;;;5.00;83.20;;;;;;5011145;28;20049;-70
2022/01/06 04:41:15;;;;;;;3.78;0.80;;;5.10;83.20;;;;;;5011592;28;20046;-71
2022/01/06 04:43:42;;;;;;;4.00;1.02;;;5.10;83.10;;;;;;5012341;28;20069;-73
2022/01/06 04:46:09;;;;;;;3.28;1.10;;;5.00;83.10;;;;;;5012663;28;20046;-71
2022/01/06 04:48:37;;;;;;;2.97;0.82;;;5.00;83.00;;;;;;5011590;28;20053;-71
2022/01/06 04:51:05;;;;;;;4.30;1.20;;;5.10;83.00;;;;;;5012112;28;20050;-71
2022/01/06 04:53:32;;;;;;;3.85;1.27;;;5.10;83.00;;;;;;5011786;28;20133;-72
2022/01/06 04:56:01;;;;;;;8.00;1.52;;;5.10;82.90;;;;;;5011321;28;20054;-71
2022/01/06 04:58:28;;;;;;;3.30;1.15;;;5.00;82.90;;;;;;5011434;28;20046;-72
2022/01/06 05:00:55;;;;;;;3.78;1.20;;;5.00;82.80;;;;;;5007686;28;20451;-71
2022/01/06 05:03:22;;;;;;;2.95;0.82;;;5.00;82.70;;;;;;5011157;28;20046;-71
2022/01/06 05:05:49;;;;;;;1.95;1.08;;;5.10;82.60;;;;;;5011080;28;20570;-71
2022/01/06 05:08:16;;;;;;;2.15;0.75;;;5.10;82.60;;;;;;5012164;28;20050;-72
2022/01/06 05:10:43;;;;;;;2.58;1.13;;;5.00;82.60;;;;;;5009533;28;20045;-73
2022/01/06 05:13:11;;;;;;;2.72;0.95;;;5.00;82.50;;;;;;5010409;28;20052;-73
2022/01/06 05:15:38;;;;;;;1.73;0.73;;;5.00;82.50;;;;;;5009566;28;20555;-70
2022/01/06 05:18:05;;;;;;;1.25;0.63;;;5.00;82.40;;;;;;5010243;28;20056;-71
2022/01/06 05:20:32;;;;;;;2.88;0.80;;;4.90;82.40;;;;;;5009779;28;20046;-72
2022/01/06 05:22:59;;;;;;;5.00;0.98;;;5.00;82.30;;;;;;5010126;28;20529;-71
2022/01/06 05:25:27;;;;;;;5.32;0.77;;;5.00;82.40;;;;;;5009704;28;20045;-74
2022/01/06 05:27:55;;;;;;;2.08;0.68;;;5.00;82.40;;;;;;5010470;28;20044;-73
2022/01/06 05:30:24;;;;;;;3.05;1.20;;;5.00;82.40;;;;;;5008688;28;20054;-71
2022/01/06 05:32:51;;;;;;;4.25;1.17;;;5.00;82.40;;;;;;5009369;28;20491;-71
2022/01/06 05:35:18;;;;;;;0.98;0.63;;;4.90;82.30;;;;;;5010177;28;20058;-72
2022/01/06 05:37:45;;;;;;;5.85;1.15;;;4.90;82.30;;;;;;5009349;28;20048;-70
2022/01/06 05:40:14;;;;;;;4.10;0.88;;;4.90;82.20;;;;;;5009116;28;20054;-71
2022/01/06 05:42:41;;;;;;;4.75;1.67;;;5.00;82.30;;;;;;5009729;28;20069;-73
2022/01/06 05:45:11;;;;;;;5.53;1.02;;;5.00;82.20;;;;;;5008998;28;20119;-71
2022/01/06 05:47:39;;;;;;;5.57;1.17;;;5.00;82.10;;;;;;4991993;28;20391;-71
2022/01/06 05:50:08;;;;;;;7.32;1.30;;;5.00;82.20;;;;;;5010920;28;20524;-72
2022/01/06 05:52:36;;;;;;;2.45;1.00;;;5.00;82.20;;;;;;5010964;28;20045;-71
2022/01/06 05:55:04;;;;;;;3.35;1.10;;;5.00;82.20;;;;;;5010722;28;20046;-71
2022/01/06 05:57:31;;;;;;;4.43;1.23;;;5.00;82.30;;;;;;5011440;28;20129;-70
2022/01/06 05:59:57;;;;;;;2.30;0.95;;;5.00;82.30;;;;;;5010588;28;20065;-72
2022/01/06 06:02:24;;;;;;;2.85;1.23;;;5.00;82.30;;;;;;5008732;28;20155;-71
2022/01/06 06:04:53;;;;;;;3.30;1.13;;;5.00;82.20;;;;;;5010168;28;20061;-73
2022/01/06 06:07:20;;;;;;;7.07;1.60;;;5.00;82.20;;;;;;5011371;28;20046;-70
2022/01/06 06:09:47;;;;;;;3.17;0.90;;;5.00;82.20;;;;;;5011013;28;20046;-70
2022/01/06 06:12:14;;;;;;;3.92;1.30;;;5.00;82.20;;;;;;5011924;28;20057;-70
2022/01/06 06:14:41;;;;;;;2.88;0.95;;;5.00;82.30;;;;;;5011018;28;20044;-72
2022/01/06 06:17:08;;;;;;;3.15;1.38;;;5.00;82.30;;;;;;5010514;28;20052;-73
2022/01/06 06:19:35;;;;;;;3.22;1.30;;;5.00;82.10;;;;;;5010785;28;20045;-70
2022/01/06 06:22:06;;;;;;;5.68;0.98;;;5.00;82.10;;;;;;5010314;28;20045;-71
2022/01/06 06:24:34;;;;;;;3.72;0.93;;;5.00;82.10;;;;;;5010099;28;20062;-71
2022/01/06 06:27:01;;;;;;;3.15;0.93;;;5.00;82.20;;;;;;5009668;28;20042;-74
2022/01/06 06:29:28;;;;;;;4.60;1.20;;;5.00;82.30;;;;;;5010968;28;20054;-71
2022/01/06 06:31:56;;;;;;;3.65;1.05;;;5.00;82.30;;;;;;5010472;28;20048;-71
2022/01/06 06:34:23;;;;;;;3.97;1.13;;;5.00;82.30;;;;;;5010373;28;20046;-71
2022/01/06 06:36:50;;;;;;;3.53;1.15;;;5.00;82.20;;;;;;5010523;28;20072;-71
2022/01/06 06:39:18;;;;;;;5.85;1.05;;;5.00;82.30;;;;;;5010379;28;20129;-72
2022/01/06 06:41:45;;;;;;;3.75;1.20;;;5.00;82.30;;;;;;5009567;28;20052;-71
2022/01/06 06:44:12;;;;;;;5.22;0.95;;;5.00;82.20;;;;;;5003392;28;20049;-71
2022/01/06 06:46:42;;;;;;;2.17;1.20;;;5.00;82.20;;;;;;5008699;28;20124;-73
2022/01/06 06:49:08;;;;;;;3.33;1.45;;;5.00;82.30;;;;;;5005846;28;20066;-71
2022/01/06 06:51:36;;;;;;;7.65;1.15;;;5.00;82.40;;;;;;4990955;28;20042;-71
2022/01/06 06:54:03;;;;;;;4.88;1.50;;;5.00;82.40;;;;;;5007160;28;20034;-71
2022/01/06 06:56:31;;;;;;;5.43;1.92;;;5.00;82.30;;;;;;5006544;28;20050;-71
2022/01/06 06:58:58;;;;;;;2.75;1.30;;;4.90;82.20;;;;;;5008120;28;20069;-70
2022/01/06 07:01:25;;;;;;;3.28;1.08;;;4.90;82.10;;;;;;5004099;28;20046;-71
2022/01/06 07:03:52;;;;;;;3.58;0.90;;;4.90;82.10;;;;;;5007925;28;20513;-72
2022/01/06 07:06:19;;;;;;;7.07;1.20;;;4.90;82.00;;;;;;5006750;28;20042;-72
2022/01/06 07:08:46;;;;;;;3.17;0.95;;;4.80;82.10;;;;;;5006479;28;20065;-71
2022/01/06 07:11:13;;;;;;;5.10;2.00;;;4.80;82.20;;;;;;5006682;28;20588;-72
2022/01/06 07:13:41;;;;;;;3.25;0.60;;;4.80;82.30;;;;;;5005801;28;20518;-73
2022/01/06 07:16:08;;;;;;;4.03;1.13;;;4.80;82.40;;;;;;5007343;28;20375;-72
2022/01/06 07:18:36;;;;;;;7.53;1.58;;;4.80;82.40;;;;;;5006916;28;20313;-72
2022/01/06 07:21:03;;;;;;;3.22;1.55;;;4.80;82.40;;;;;;5006422;28;20034;-70
2022/01/06 07:23:30;;;;;;;6.32;2.10;;;4.80;82.40;;;;;;4988993;28;20458;-71
2022/01/06 07:25:57;;;;;;;2.10;1.35;;;4.80;82.40;;;;;;5005995;28;20038;-73
2022/01/06 07:28:24;;;;;;;5.38;1.40;;;4.80;82.50;;;;;;5009435;28;20041;-71
2022/01/06 07:30:52;;;;;;;5.28;1.38;;;4.90;82.50;;;;;;5008017;28;20455;-71
2022/01/06 07:33:19;;;;;;;6.53;1.00;;;4.90;82.40;;;;;;5008329;28;20053;-70
2022/01/06 07:35:46;;;;;;;6.15;1.20;;;4.80;82.40;;;;;;5007988;28;20046;-70
2022/01/06 07:38:13;;;;;;;5.30;1.10;;;4.80;82.30;;;;;;5008459;28;20044;-73
2022/01/06 07:40:40;;;;;;;4.78;1.48;;;4.80;82.40;;;;;;5007423;28;20049;-71
2022/01/06 07:43:07;;;;;;;3.28;1.30;;;4.80;82.30;;;;;;5008464;28;20041;-70
2022/01/06 07:45:34;;;;;;;2.88;1.83;;;4.80;82.20;;;;;;5008952;28;20385;-73
2022/01/06 07:48:04;;;;;;;3.63;1.27;;;4.80;82.20;;;;;;5007557;28;20044;-72
2022/01/06 07:50:33;;;;;;;4.68;1.10;;;4.80;82.10;;;;;;5007873;28;20050;-71
2022/01/06 07:53:00;;;;;;;4.53;1.05;;;4.80;82.10;;;;;;5008164;28;20568;-72
2022/01/06 07:55:28;;;;;;;5.65;1.27;;;4.80;82.20;;;;;;5006881;28;20049;-73
2022/01/06 07:57:55;;;;;;;5.50;1.25;;;4.80;82.20;;;;;;5008081;28;20038;-71
2022/01/06 08:00:23;;;;;;;5.40;1.55;;;4.80;82.10;;;;;;5005849;28;20310;-73
2022/01/06 08:02:49;;;;;;;3.25;1.35;;;4.80;82.20;;;;;;5007983;28;20496;-71
2022/01/06 08:05:20;;;;;;;9.02;2.00;;;4.70;82.30;;;;;;5008015;28;20121;-74
2022/01/06 08:07:47;;;;;;;7.60;1.75;;;4.70;82.30;;;;;;5006997;28;20121;-74
2022/01/06 08:10:15;;;;;;;3.53;1.20;;;4.80;82.30;;;;;;5008426;28;20058;-71
2022/01/06 08:12:42;;;;;;;3.50;1.55;;;4.70;82.40;;;;;;4969089;28;1134126;-72
2022/01/06 08:15:10;;;;;;;5.60;2.10;;;4.80;82.40;;;;;;5009059;28;20041;-72
2022/01/06 08:17:38;;;;;;;4.28;1.45;;;4.70;82.30;;;;;;5007652;28;20050;-72
2022/01/06 08:20:06;;;;;;;7.00;1.23;;;4.80;82.30;;;;;;5009170;28;20042;-72
2022/01/06 08:22:35;;;;;;;3.85;1.42;;;4.80;82.20;;;;;;5008611;28;20526;-71
2022/01/06 08:25:02;;;;;;;4.95;1.48;;;4.70;82.20;;;;;;5007828;28;20034;-70
2022/01/06 08:27:29;;;;;;;4.65;1.85;;;4.70;82.20;;;;;;5006937;28;20057;-72
2022/01/06 08:29:56;;;;;;;2.28;1.05;;;4.80;82.30;;;;;;5007675;28;20125;-73
2022/01/06 08:32:23;;;;;;;4.28;1.45;;;4.70;82.30;;;;;;5006801;28;20058;-73
2022/01/06 08:34:50;;;;;;;22.40;6.88;;;4.80;82.30;;;;;;5006664;28;20050;-71
2022/01/06 08:37:18;;;;;;;13.23;5.90;;;4.80;82.30;;;;;;5005763;28;20057;-73
2022/01/06 08:39:46;;;;;;;10.63;4.32;;;4.80;82.30;;;;;;5007179;28;20045;-71
2022/01/06 08:42:13;;;;;;;12.65;3.33;;;4.80;82.30;;;;;;5006522;28;20042;-73
2022/01/06 08:44:41;;;;;;;8.38;2.53;;;4.80;82.30;;;;;;5007163;28;20050;-71
2022/01/06 08:47:10;;;;;;;7.45;3.47;;;4.80;82.20;;;;;;5006847;28;20492;-73
2022/01/06 08:49:37;;;;;;;7.35;3.67;;;4.80;82.30;;;;;;5006518;28;20058;-72
2022/01/06 08:52:05;;;;;;;9.02;4.63;;;4.80;82.20;;;;;;5005951;28;20042;-71
2022/01/06 08:54:32;;;;;;;11.48;4.20;;;4.80;82.20;;;;;;5006362;28;20056;-71
2022/01/06 08:57:01;;;;;;;10.02;5.30;;;4.80;82.20;;;;;;5006873;28;20045;-72
2022/01/06 08:59:29;;;;;;;13.05;8.23;;;4.80;82.30;;;;;;5006029;28;20050;-71
2022/01/06 09:01:56;;;;;;;15.35;8.63;;;4.90;82.40;;;;;;5004634;28;20038;-70
2022/01/06 09:04:23;;;;;;;23.55;12.45;;;4.90;82.50;;;;;;5006898;28;20044;-72
2022/01/06 09:06:51;;;;;;;15.45;9.23;;;4.90;82.50;;;;;;5008758;28;20468;-70
2022/01/06 09:09:19;;;;;;;14.30;7.53;;;5.00;82.40;;;;;;5011484;28;20046;-71
2022/01/06 09:11:46;;;;;;;11.35;6.13;;;5.00;82.30;;;;;;5011097;28;20049;-72
2022/01/06 09:14:15;;;;;;;9.20;3.58;;;5.00;82.10;;;;;;5011725;28;20496;-70
2022/01/06 09:16:42;;;;;;;9.07;3.45;;;5.00;81.90;;;;;;5011705;28;20068;-71
2022/01/06 09:19:09;;;;;;;6.68;3.40;;;5.00;81.80;;;;;;5011786;28;20077;-72
2022/01/06 09:21:36;;;;;;;4.72;2.28;;;5.00;81.80;;;;;;5011487;28;20116;-71
2022/01/06 09:24:06;;;;;;;7.25;3.38;;;5.00;81.80;;;;;;5010881;28;20054;-71
2022/01/06 09:26:34;;;;;;;9.52;3.13;;;5.00;81.80;;;;;;5011367;28;20045;-71
2022/01/06 09:29:02;;;;;;;5.70;2.10;;;5.00;81.70;;;;;;5009860;28;20496;-72
2022/01/06 09:31:33;;;;;;;10.43;2.45;;;5.00;81.80;;;;;;5011017;28;20050;-73
2022/01/06 09:34:01;;;;;;;5.22;2.50;;;5.10;81.70;;;;;;5010672;28;20074;-71
2022/01/06 09:36:30;;;;;;;5.55;2.92;;;5.10;81.60;;;;;;5011915;28;20054;-71
2022/01/06 09:38:57;;;;;;;7.50;3.58;;;5.20;81.60;;;;;;5009206;28;20046;-71
2022/01/06 09:41:26;;;;;;;9.52;3.95;;;5.20;81.40;;;;;;5010879;28;20157;-71
2022/01/06 09:43:54;;;;;;;5.03;3.15;;;5.20;81.30;;;;;;5009456;28;20540;-71
2022/01/06 09:46:22;;;;;;;6.13;2.92;;;5.20;81.40;;;;;;5010978;28;20060;-72
2022/01/06 09:48:51;;;;;;;4.95;2.28;;;5.30;81.30;;;;;;5011490;28;20141;-73
2022/01/06 09:51:18;;;;;;;5.35;2.40;;;5.30;81.40;;;;;;5010613;28;20137;-71
2022/01/06 09:53:48;;;;;;;5.78;2.53;;;5.30;81.40;;;;;;5011415;28;20045;-72
2022/01/06 09:56:15;;;;;;;6.03;1.40;;;5.30;81.50;;;;;;5011223;28;20488;-71
2022/01/06 09:58:42;;;;;;;6.18;1.70;;;5.30;81.40;;;;;;5009507;28;20492;-73
2022/01/06 10:01:09;;;;;;;4.60;2.25;;;5.30;81.40;;;;;;5007371;28;20043;-72
2022/01/06 10:03:37;;;;;;;5.97;2.47;;;5.40;81.30;;;;;;5010844;28;20056;-72
2022/01/06 10:06:14;;;;;;;4.18;1.92;;;5.40;81.20;;;;;;5010379;28;20037;-71
2022/01/06 10:08:42;;;;;;;4.93;1.88;;;5.40;81.20;;;;;;5009727;28;20246;-72
2022/01/06 10:11:11;;;;;;;5.57;1.60;;;5.40;81.20;;;;;;5008202;28;20037;-72
2022/01/06 10:13:38;;;;;;;4.82;1.95;;;5.40;81.10;;;;;;5009312;28;20056;-71
2022/01/06 10:16:16;;;;;;;9.27;2.35;;;5.50;81.00;;;;;;5008406;28;20125;-71
2022/01/06 10:18:54;;;;;;;7.80;1.92;;;5.50;80.90;;;;;;5007724;28;20056;-72
2022/01/06 10:21:23;;;;;;;5.05;1.73;;;5.50;81.00;;;;;;5009503;28;20153;-71
2022/01/06 10:23:59;;;;;;;6.55;2.42;;;5.50;81.00;;;;;;5009055;28;20045;-70
2022/01/06 10:26:26;;;;;;;3.72;1.95;;;5.50;80.90;;;;;;5008921;28;20056;-72
2022/01/06 10:28:54;;;;;;;4.63;2.83;;;5.50;80.60;;;;;;5007645;28;20732;-70
2022/01/06 10:31:24;;;;;;;9.82;3.03;;;5.60;80.60;;;;;;5009564;28;20072;-70
2022/01/06 10:33:51;;;;;;;5.68;2.50;;;5.60;80.40;;;;;;5008516;28;20042;-70
2022/01/06 10:36:18;;;;;;;9.70;3.58;;;5.60;80.40;;;;;;5008209;28;20041;-73
2022/01/06 10:38:55;;;;;;;6.95;2.83;;;5.60;80.40;;;;;;5008938;28;20045;-72
2022/01/06 10:41:22;;;;;;;6.72;2.45;;;5.60;80.40;;;;;;5009942;28;20076;-72
2022/01/06 10:43:51;;;;;;;6.10;1.92;;;5.60;80.40;;;;;;5002788;28;20037;-71
2022/01/06 10:46:29;;;;;;;8.07;2.75;;;5.60;80.20;;;;;;5009063;28;20042;-74
2022/01/06 10:49:00;;;;;;;5.22;1.90;;;5.60;80.10;;;;;;5010106;28;20137;-73
2022/01/06 10:51:33;;;;;;;2.08;0.90;;;5.70;80.10;;;;;;5008982;28;20058;-71
2022/01/06 10:54:02;;;;;;;4.75;1.55;;;5.70;80.00;;;;;;5009699;28;20045;-70
2022/01/06 10:56:31;;;;;;;4.45;1.63;;;5.70;79.90;;;;;;5009330;28;20042;-72
2022/01/06 10:58:59;;;;;;;4.15;1.13;;;5.70;79.70;;;;;;5009450;28;20069;-72
2022/01/06 11:01:26;;;;;;;4.18;1.70;;;5.70;79.50;;;;;;5006331;28;20392;-70
2022/01/06 11:03:53;;;;;;;5.43;1.80;;;5.70;79.30;;;;;;5009788;28;20050;-70
2022/01/06 11:06:20;;;;;;;10.80;2.70;;;5.80;79.30;;;;;;5008620;28;20053;-72
2022/01/06 11:08:48;;;;;;;6.55;2.03;;;5.80;79.30;;;;;;5009166;28;20067;-70
2022/01/06 11:11:31;;;;;;;4.47;1.52;;;5.80;79.20;;;;;;5008737;28;20054;-72
2022/01/06 11:13:57;;;;;;;3.97;1.75;;;5.80;79.00;;;;;;5009340;28;20042;-72
2022/01/06 11:16:25;;;;;;;5.28;2.40;;;5.80;78.90;;;;;;5009210;28;20046;-72
2022/01/06 11:18:53;;;;;;;7.93;2.55;;;5.90;78.90;;;;;;5009485;28;20060;-71
2022/01/06 11:21:24;;;;;;;6.88;2.13;;;5.90;78.70;;;;;;5010013;28;20069;-71
2022/01/06 11:24:02;;;;;;;4.95;1.90;;;5.90;78.60;;;;;;5008317;28;20095;-71
2022/01/06 11:26:31;;;;;;;5.20;2.50;;;5.90;78.70;;;;;;5009560;28;20053;-70
2022/01/06 11:29:00;;;;;;;4.97;1.65;;;6.00;78.80;;;;;;5008918;28;20353;-72
2022/01/06 11:31:29;;;;;;;6.82;1.95;;;6.00;78.30;;;;;;5009408;28;20080;-70
2022/01/06 11:33:57;;;;;;;7.10;2.08;;;6.00;78.00;;;;;;5008272;28;20598;-71
2022/01/06 11:36:29;;;;;;;4.22;1.38;;;6.00;78.10;;;;;;5010089;28;20048;-70
2022/01/06 11:38:58;;;;;;;6.13;1.58;;;6.00;78.30;;;;;;5009016;28;20429;-73
2022/01/06 11:41:26;;;;;;;4.63;2.00;;;6.00;78.10;;;;;;5008839;28;20132;-71
2022/01/06 11:43:58;;;;;;;5.72;2.10;;;6.10;78.20;;;;;;5009329;28;20054;-70
2022/01/06 11:46:26;;;;;;;7.60;3.15;;;6.00;78.10;;;;;;5007822;28;20073;-71
2022/01/06 11:48:54;;;;;;;9.35;2.00;;;6.00;77.90;;;;;;5007716;28;20050;-72
2022/01/06 11:51:29;;;;;;;5.65;2.08;;;6.00;77.90;;;;;;5007296;28;20057;-70
2022/01/06 11:53:56;;;;;;;6.35;1.85;;;6.10;77.80;;;;;;5007178;28;20064;-71
2022/01/06 11:56:24;;;;;;;6.28;1.50;;;6.10;77.90;;;;;;5007486;28;20072;-72
2022/01/06 11:59:00;;;;;;;8.52;1.60;;;6.10;77.80;;;;;;5007482;28;20488;-71
2022/01/06 12:01:28;;;;;;;3.17;1.42;;;6.10;77.50;;;;;;5004976;28;20117;-71
2022/01/06 12:03:55;;;;;;;3.75;1.40;;;6.10;77.40;;;;;;5007562;28;20034;-72
2022/01/06 12:06:29;;;;;;;4.68;1.75;;;6.10;77.20;;;;;;5006719;28;20517;-70
2022/01/06 12:08:57;;;;;;;3.92;1.38;;;6.10;76.80;;;;;;5006484;28;20092;-71
2022/01/06 12:11:25;;;;;;;7.70;1.70;;;6.10;76.70;;;;;;5006866;28;20089;-71
2022/01/06 12:13:55;;;;;;;7.00;1.40;;;6.10;76.50;;;;;;5007394;28;20618;-74
2022/01/06 12:16:28;;;;;;;7.18;1.50;;;6.10;76.40;;;;;;5006890;28;20121;-71
2022/01/06 12:18:55;;;;;;;4.22;1.42;;;6.20;76.70;;;;;;5006888;28;20069;-71
2022/01/06 12:21:22;;;;;;;6.78;1.65;;;6.20;76.90;;;;;;5007523;28;20048;-72
2022/01/06 12:24:00;;;;;;;2.75;1.15;;;6.20;76.80;;;;;;5006944;28;20042;-71
2022/01/06 12:26:27;;;;;;;2.83;1.08;;;6.30;76.60;;;;;;5007794;28;20496;-71
2022/01/06 12:28:54;;;;;;;3.72;1.17;;;6.30;76.60;;;;;;5008578;28;20067;-72
2022/01/06 12:31:24;;;;;;;4.15;1.38;;;6.30;76.60;;;;;;5009377;28;20117;-72
2022/01/06 12:33:58;;;;;;;2.65;1.10;;;6.40;76.60;;;;;;5008396;28;20097;-72
2022/01/06 12:36:26;;;;;;;4.10;1.20;;;6.40;76.10;;;;;;5008736;28;20046;-72
2022/01/06 12:38:53;;;;;;;3.30;1.38;;;6.50;75.70;;;;;;5008033;28;20053;-71
2022/01/06 12:41:28;;;;;;;4.60;1.02;;;6.40;76.00;;;;;;5010029;28;20046;-71
2022/01/06 12:43:56;;;;;;;6.13;1.15;;;6.50;76.00;;;;;;5010260;28;20524;-73
2022/01/06 12:46:29;;;;;;;1.95;1.00;;;6.40;75.50;;;;;;5011160;28;20450;-70
2022/01/06 12:48:58;;;;;;;3.97;1.30;;;6.50;75.50;;;;;;5011066;28;20042;-72
2022/01/06 12:51:26;;;;;;;8.73;2.33;;;6.50;75.00;;;;;;5011288;28;20045;-71
2022/01/06 12:54:02;;;;;;;13.68;3.22;;;6.60;74.70;;;;;;5011719;28;20048;-70
2022/01/06 12:56:30;;;;;;;7.88;2.28;;;6.60;74.90;;;;;;5011137;28;20065;-71
2022/01/06 12:58:58;;;;;;;3.88;1.40;;;6.60;74.50;;;;;;5012648;28;20056;-73
2022/01/06 13:01:25;;;;;;;3.78;1.17;;;6.60;74.50;;;;;;5009117;28;20045;-74
2022/01/06 13:03:54;;;;;;;7.22;2.55;;;6.60;74.10;;;;;;5011205;28;20046;-70
2022/01/06 13:06:25;;;;;;;4.47;0.90;;;6.60;73.80;;;;;;5011299;28;20042;-71